createdAt,value
2018-03-14T00:00:43.439Z,9.88
2018-03-14T00:03:12.073Z,11.15
2018-03-14T00:05:40.561Z,12.80
2018-03-14T00:08:09.581Z,18.05
2018-03-14T00:10:38.483Z,11.10
2018-03-14T00:13:06.958Z,12.90
2018-03-14T00:15:36.664Z,11.18
2018-03-14T00:18:06.848Z,12.90
2018-03-14T00:20:35.568Z,9.13
2018-03-14T00:23:04.121Z,14.35
2018-03-14T00:25:32.628Z,11.55
2018-03-14T00:28:01.088Z,20.02
2018-03-14T00:30:29.771Z,11.93
2018-03-14T00:32:58.552Z,10.07
2018-03-14T00:35:27.041Z,13.32
2018-03-14T00:37:55.649Z,12.45
2018-03-14T00:40:24.134Z,14.18
2018-03-14T00:42:52.579Z,16.00
2018-03-14T00:45:22.612Z,12.45
2018-03-14T00:47:51.155Z,13.15
2018-03-14T00:50:19.725Z,10.05
2018-03-14T00:52:50.593Z,12.27
2018-03-14T00:55:19.088Z,12.20
2018-03-14T00:57:47.682Z,10.07
2018-03-14T01:00:16.225Z,14.98
2018-03-14T01:02:44.776Z,11.05
2018-03-14T01:05:13.321Z,10.38
2018-03-14T01:07:42.732Z,17.80
2018-03-14T01:10:11.234Z,13.45
2018-03-14T01:12:39.670Z,12.02
2018-03-14T01:15:08.950Z,11.65
2018-03-14T01:17:37.398Z,12.35
2018-03-14T01:20:05.842Z,19.00
2018-03-14T01:22:34.329Z,12.95
2018-03-14T01:25:02.892Z,10.90
2018-03-14T01:27:31.316Z,9.35
2018-03-14T01:30:00.256Z,13.30
2018-03-14T01:32:30.718Z,14.90
2018-03-14T01:34:59.373Z,13.48
2018-03-14T01:37:27.858Z,14.20
2018-03-14T01:39:56.363Z,10.00
2018-03-14T01:42:24.843Z,19.73
2018-03-14T01:44:54.170Z,15.15
2018-03-14T01:47:23.570Z,10.77
2018-03-14T01:49:52.155Z,10.98
2018-03-14T01:52:21.262Z,11.10
2018-03-14T01:54:51.076Z,16.48
2018-03-14T01:57:19.726Z,13.75
2018-03-14T01:59:48.509Z,10.25
2018-03-14T02:02:17.886Z,9.55
2018-03-14T02:04:46.394Z,15.95
2018-03-14T02:07:15.301Z,13.52
2018-03-14T02:09:43.858Z,10.32
2018-03-14T02:12:13.392Z,12.10
2018-03-14T02:14:42.741Z,21.42
2018-03-14T02:17:11.895Z,12.32
2018-03-14T02:19:40.396Z,18.73
2018-03-14T02:22:09.117Z,15.57
2018-03-14T02:24:37.552Z,19.60
2018-03-14T02:27:13.439Z,16.40
2018-03-14T02:29:42.124Z,14.15
2018-03-14T02:32:10.674Z,15.73
2018-03-14T02:34:39.152Z,13.02
2018-03-14T02:37:07.597Z,9.98
2018-03-14T02:39:36.041Z,13.68
2018-03-14T02:42:04.621Z,11.00
2018-03-14T02:44:33.518Z,14.60
2018-03-14T02:47:02.047Z,12.70
2018-03-14T02:49:31.028Z,15.68
2018-03-14T02:51:59.473Z,17.45
2018-03-14T02:54:27.996Z,12.32
2018-03-14T02:56:57.325Z,14.50
2018-03-14T02:59:25.726Z,8.05
2018-03-14T03:01:54.153Z,14.27
2018-03-14T03:04:23.491Z,10.07
2018-03-14T03:06:52.172Z,15.93
2018-03-14T03:09:20.673Z,11.15
2018-03-14T03:11:49.775Z,24.25
2018-03-14T03:14:18.402Z,9.32
2018-03-14T03:16:46.911Z,8.50
2018-03-14T03:19:16.239Z,16.40
2018-03-14T03:21:44.834Z,15.20
2018-03-14T03:24:13.560Z,11.75
2018-03-14T03:26:44.039Z,10.35
2018-03-14T03:29:13.551Z,9.13
2018-03-14T03:31:42.078Z,12.45
2018-03-14T03:34:12.051Z,21.35
2018-03-14T03:36:40.477Z,13.27
2018-03-14T03:39:09.012Z,9.32
2018-03-14T03:41:37.657Z,8.45
2018-03-14T03:44:06.304Z,14.45
2018-03-14T03:46:34.743Z,8.25
2018-03-14T03:49:03.598Z,8.93
2018-03-14T03:51:32.021Z,7.57
2018-03-14T03:54:00.458Z,9.30
2018-03-14T03:56:28.959Z,10.48
2018-03-14T03:59:09.938Z,7.20
2018-03-14T04:01:39.316Z,18.15
2018-03-14T04:04:07.801Z,8.25
2018-03-14T04:06:36.786Z,6.22
2018-03-14T04:09:05.732Z,11.10
2018-03-14T04:11:34.193Z,9.63
2018-03-14T04:14:03.179Z,7.40
2018-03-14T04:16:32.142Z,6.97
2018-03-14T04:19:00.569Z,4.78
2018-03-14T04:21:29.155Z,5.25
2018-03-14T04:23:57.640Z,8.75
2018-03-14T04:26:26.119Z,5.68
2018-03-14T04:28:54.909Z,4.62
2018-03-14T04:31:23.672Z,9.00
2018-03-14T04:33:52.111Z,5.28
2018-03-14T04:36:20.602Z,5.53
2018-03-14T04:38:50.357Z,4.87
2018-03-14T04:41:18.979Z,4.70
2018-03-14T04:43:47.579Z,5.10
2018-03-14T04:46:16.846Z,6.28
2018-03-14T04:48:46.328Z,5.30
2018-03-14T04:51:14.797Z,6.05
2018-03-14T04:53:43.969Z,4.57
2018-03-14T04:56:13.922Z,5.20
2018-03-14T04:58:42.614Z,4.28
2018-03-14T05:01:13.225Z,4.35
2018-03-14T05:03:42.128Z,5.07
2018-03-14T05:06:10.602Z,5.20
2018-03-14T05:08:39.151Z,5.10
2018-03-14T05:11:07.629Z,5.35
2018-03-14T05:13:36.143Z,8.35
2018-03-14T05:16:05.040Z,5.20
2018-03-14T05:18:33.822Z,4.70
2018-03-14T05:21:02.275Z,4.30
2018-03-14T05:23:30.806Z,10.98
2018-03-14T05:25:59.237Z,4.35
2018-03-14T05:28:27.745Z,7.80
2018-03-14T05:30:56.325Z,4.45
2018-03-14T05:33:25.026Z,4.90
2018-03-14T05:35:53.590Z,6.18
2018-03-14T05:38:22.422Z,6.18
2018-03-14T05:40:50.986Z,5.62
2018-03-14T05:43:19.576Z,5.55
2018-03-14T05:45:48.902Z,4.85
2018-03-14T05:48:17.404Z,4.70
2018-03-14T05:50:45.931Z,7.40
2018-03-14T05:53:14.571Z,4.87
2018-03-14T05:55:44.821Z,11.30
2018-03-14T05:58:14.162Z,4.50
2018-03-14T06:00:43.727Z,9.43
2018-03-14T06:03:12.835Z,4.37
2018-03-14T06:05:41.279Z,7.82
2018-03-14T06:08:09.770Z,6.65
2018-03-14T06:10:38.210Z,9.75
2018-03-14T06:13:06.644Z,7.22
2018-03-14T06:15:35.213Z,7.97
2018-03-14T06:18:03.790Z,6.32
2018-03-14T06:20:32.270Z,9.45
2018-03-14T06:23:01.951Z,5.20
2018-03-14T06:25:30.439Z,6.95
2018-03-14T06:27:58.994Z,5.25
2018-03-14T06:30:27.720Z,8.50
2018-03-14T06:32:56.176Z,7.05
2018-03-14T06:35:25.178Z,5.32
2018-03-14T06:37:53.915Z,4.57
2018-03-14T06:40:22.939Z,7.75
2018-03-14T06:42:51.491Z,4.57
2018-03-14T06:45:22.159Z,5.57
2018-03-14T06:47:50.695Z,6.20
2018-03-14T06:50:19.189Z,6.10
2018-03-14T06:52:48.018Z,9.45
2018-03-14T06:55:17.064Z,6.95
2018-03-14T06:57:45.737Z,4.40
2018-03-14T07:00:25.936Z,7.03
2018-03-14T07:03:06.190Z,6.18
2018-03-14T07:05:47.388Z,4.30
2018-03-14T07:08:15.924Z,7.45
2018-03-14T07:10:44.712Z,10.65
2018-03-14T07:13:13.632Z,5.32
2018-03-14T07:15:43.172Z,8.77
2018-03-14T07:18:11.691Z,5.15
2018-03-14T07:20:41.539Z,5.12
2018-03-14T07:23:10.089Z,5.32
2018-03-14T07:25:38.586Z,5.18
2018-03-14T07:28:07.109Z,10.32
2018-03-14T07:30:35.546Z,5.47
2018-03-14T07:33:09.651Z,11.80
2018-03-14T07:35:38.140Z,6.03
2018-03-14T07:38:06.589Z,8.65
2018-03-14T07:40:35.160Z,8.57
2018-03-14T07:43:03.637Z,4.32
2018-03-14T07:45:32.062Z,8.05
2018-03-14T07:48:00.568Z,10.38
2018-03-14T07:50:29.002Z,10.82
2018-03-14T07:52:57.441Z,7.60
2018-03-14T07:55:25.979Z,4.50
2018-03-14T07:57:54.465Z,9.20
2018-03-14T08:00:22.910Z,8.75
2018-03-14T08:02:51.535Z,9.52
2018-03-14T08:05:20.121Z,4.60
2018-03-14T08:07:48.633Z,8.15
2018-03-14T08:10:18.309Z,9.13
2018-03-14T08:12:46.962Z,8.27
2018-03-14T08:15:15.980Z,5.97
2018-03-14T08:17:45.589Z,8.63
2018-03-14T08:20:14.163Z,5.15
2018-03-14T08:22:42.767Z,7.85
2018-03-14T08:25:12.480Z,4.72
2018-03-14T08:27:41.010Z,5.00
2018-03-14T08:30:09.443Z,6.35
2018-03-14T08:32:38.308Z,6.25
2018-03-14T08:35:06.740Z,6.93
2018-03-14T08:37:35.334Z,5.65
2018-03-14T08:40:04.051Z,10.10
2018-03-14T08:42:32.470Z,4.12
2018-03-14T08:45:01.018Z,6.72
2018-03-14T08:47:30.077Z,3.67
2018-03-14T08:49:58.564Z,3.70
2018-03-14T08:52:27.080Z,5.82
2018-03-14T08:54:55.756Z,5.78
2018-03-14T08:57:24.247Z,3.30
2018-03-14T08:59:52.751Z,3.65
2018-03-14T09:02:21.329Z,8.57
2018-03-14T09:04:49.804Z,4.37
2018-03-14T09:07:18.421Z,6.18
2018-03-14T09:09:48.439Z,4.53
2018-03-14T09:12:16.967Z,4.32
2018-03-14T09:14:45.405Z,5.25
2018-03-14T09:17:14.259Z,4.55
2018-03-14T09:19:42.773Z,6.57
2018-03-14T09:22:11.295Z,6.50
2018-03-14T09:24:39.806Z,14.85
2018-03-14T09:27:08.246Z,7.68
2018-03-14T09:29:36.690Z,5.50
2018-03-14T09:32:09.266Z,7.18
2018-03-14T09:34:37.709Z,7.50
2018-03-14T09:37:06.135Z,10.20
2018-03-14T09:39:34.864Z,10.15
2018-03-14T09:42:03.508Z,12.98
2018-03-14T09:44:32.953Z,14.40
2018-03-14T09:47:01.862Z,16.40
2018-03-14T09:49:30.358Z,10.32
2018-03-14T09:51:58.858Z,11.10
2018-03-14T09:54:27.366Z,11.38
2018-03-14T09:56:55.803Z,8.68
2018-03-14T09:59:24.253Z,7.78
2018-03-14T10:01:52.764Z,14.07
2018-03-14T10:04:21.298Z,8.57
2018-03-14T10:06:49.957Z,7.15
2018-03-14T10:09:18.631Z,7.40
2018-03-14T10:11:47.127Z,9.80
2018-03-14T10:14:15.768Z,8.52
2018-03-14T10:16:44.351Z,9.55
2018-03-14T10:19:13.510Z,9.73
2018-03-14T10:21:42.049Z,12.00
2018-03-14T10:24:10.653Z,6.60
2018-03-14T10:26:39.119Z,9.63
2018-03-14T10:29:07.562Z,11.80
2018-03-14T10:31:36.242Z,9.90
2018-03-14T10:34:04.725Z,9.45
2018-03-14T10:36:33.168Z,19.90
2018-03-14T10:39:01.921Z,18.27
2018-03-14T10:41:30.391Z,16.80
2018-03-14T10:43:58.881Z,12.13
2018-03-14T10:46:27.360Z,8.43
2018-03-14T10:48:55.798Z,11.15
2018-03-14T10:51:24.301Z,7.80
2018-03-14T10:53:52.860Z,8.55
2018-03-14T10:56:21.339Z,10.98
2018-03-14T10:58:49.867Z,8.60
2018-03-14T11:01:19.030Z,12.05
2018-03-14T11:03:47.872Z,8.15
2018-03-14T11:06:16.382Z,5.68
2018-03-14T11:08:45.551Z,10.68
2018-03-14T11:11:14.129Z,9.60
2018-03-14T11:13:43.843Z,10.57
2018-03-14T11:16:13.164Z,9.55
2018-03-14T11:18:42.750Z,12.85
2018-03-14T11:21:11.555Z,8.60
2018-03-14T11:23:40.117Z,11.15
2018-03-14T11:26:09.006Z,15.75
2018-03-14T11:28:37.465Z,14.07
2018-03-14T11:31:06.025Z,9.18
2018-03-14T11:33:34.489Z,7.53
2018-03-14T11:36:02.939Z,7.47
2018-03-14T11:38:33.001Z,17.77
2018-03-14T11:41:01.619Z,11.95
2018-03-14T11:43:30.099Z,6.53
2018-03-14T11:45:59.910Z,20.05
2018-03-14T11:48:28.461Z,8.00
2018-03-14T11:50:56.967Z,12.73
2018-03-14T11:53:26.404Z,9.20
2018-03-14T11:55:55.086Z,9.20
2018-03-14T11:58:24.208Z,11.85
2018-03-14T12:00:54.335Z,8.88
2018-03-14T12:03:22.987Z,10.40
2018-03-14T12:05:51.691Z,8.07
2018-03-14T12:08:21.159Z,10.00
2018-03-14T12:10:49.741Z,8.18
2018-03-14T12:13:18.531Z,10.63
2018-03-14T12:15:47.149Z,13.93
2018-03-14T12:18:16.307Z,10.98
2018-03-14T12:20:45.408Z,8.75
2018-03-14T12:23:14.198Z,9.98
2018-03-14T12:25:44.051Z,14.87
2018-03-14T12:28:14.811Z,11.93
2018-03-14T12:30:43.651Z,9.65
2018-03-14T12:33:12.435Z,9.60
2018-03-14T12:35:41.254Z,8.23
2018-03-14T12:38:11.137Z,6.32
2018-03-14T12:40:39.701Z,9.82
2018-03-14T12:43:08.692Z,8.43
2018-03-14T12:45:37.114Z,7.53
2018-03-14T12:48:05.666Z,9.25
2018-03-14T12:50:35.894Z,10.07
2018-03-14T12:53:05.291Z,9.00
2018-03-14T12:55:33.977Z,13.82
2018-03-14T12:58:02.485Z,8.43
2018-03-14T13:00:30.942Z,9.05
2018-03-14T13:02:59.420Z,7.95
2018-03-14T13:05:28.953Z,5.40
2018-03-14T13:07:57.433Z,15.10
2018-03-14T13:10:25.994Z,11.60
2018-03-14T13:12:55.394Z,6.15
2018-03-14T13:15:24.185Z,5.22
2018-03-14T13:17:53.232Z,6.20
2018-03-14T13:20:21.973Z,14.57
2018-03-14T13:22:50.758Z,10.88
2018-03-14T13:25:19.439Z,5.95
2018-03-14T13:27:48.945Z,7.40
2018-03-14T13:30:17.632Z,9.82
2018-03-14T13:32:46.222Z,11.75
2018-03-14T13:35:17.055Z,6.40
2018-03-14T13:37:46.357Z,8.57
2018-03-14T13:40:15.562Z,11.65
2018-03-14T13:42:45.680Z,11.98
2018-03-14T13:45:14.885Z,6.93
2018-03-14T13:47:43.864Z,10.68
2018-03-14T13:50:13.630Z,8.10
2018-03-14T13:52:42.180Z,9.68
2018-03-14T13:55:10.968Z,10.20
2018-03-14T13:57:39.625Z,7.87
2018-03-14T14:00:08.142Z,7.62
2018-03-14T14:02:36.676Z,8.48
2018-03-14T14:05:05.713Z,14.23
2018-03-14T14:07:34.277Z,9.00
2018-03-14T14:10:02.947Z,8.93
2018-03-14T14:12:31.701Z,9.85
2018-03-14T14:15:00.150Z,6.80
2018-03-14T14:17:28.612Z,8.82
2018-03-14T14:19:57.867Z,9.57
2018-03-14T14:22:26.442Z,9.95
2018-03-14T14:24:55.179Z,8.90
2018-03-14T14:27:25.994Z,14.27
2018-03-14T14:29:57.461Z,8.93
2018-03-14T14:32:26.537Z,11.40
2018-03-14T14:34:55.231Z,11.15
2018-03-14T14:37:23.889Z,11.85
2018-03-14T14:39:56.385Z,9.80
2018-03-14T14:42:27.484Z,9.20
2018-03-14T14:44:57.007Z,11.82
2018-03-14T14:47:27.449Z,10.88
2018-03-14T14:49:58.049Z,12.57
2018-03-14T14:52:27.515Z,11.73
2018-03-14T14:54:56.993Z,9.27
2018-03-14T14:57:26.625Z,6.37
2018-03-14T14:59:55.478Z,10.52
2018-03-14T15:02:24.605Z,10.98
2018-03-14T15:04:53.504Z,14.18
2018-03-14T15:07:23.490Z,8.50
2018-03-14T15:09:54.479Z,10.23
2018-03-14T15:12:23.555Z,11.65
2018-03-14T15:14:52.258Z,8.82
2018-03-14T15:17:21.123Z,13.38
2018-03-14T15:19:50.130Z,10.05
2018-03-14T15:22:18.802Z,9.15
2018-03-14T15:24:47.497Z,9.20
2018-03-14T15:27:17.321Z,10.45
2018-03-14T15:29:49.635Z,13.15
2018-03-14T15:32:18.534Z,16.85
2018-03-14T15:34:48.289Z,11.60
2018-03-14T15:37:16.914Z,11.57
2018-03-14T15:39:46.158Z,18.35
2018-03-14T15:42:14.696Z,11.60
2018-03-14T15:44:44.272Z,15.77
2018-03-14T15:47:13.653Z,14.45
2018-03-14T15:49:42.134Z,10.95
2018-03-14T15:52:10.651Z,14.23
2018-03-14T15:54:39.607Z,8.50
2018-03-14T15:57:08.152Z,11.23
2018-03-14T15:59:36.635Z,11.95
2018-03-14T16:02:06.071Z,10.55
2018-03-14T16:04:35.421Z,12.02
2018-03-14T16:07:03.959Z,9.40
2018-03-14T16:09:33.201Z,8.02
2018-03-14T16:12:01.730Z,13.85
2018-03-14T16:14:30.218Z,13.05
2018-03-14T16:16:58.770Z,8.73
2018-03-14T16:19:27.278Z,13.80
2018-03-14T16:21:57.652Z,17.02
2018-03-14T16:24:26.191Z,13.75
2018-03-14T16:26:54.725Z,15.57
2018-03-14T16:29:23.495Z,9.18
2018-03-14T16:31:52.374Z,10.25
2018-03-14T16:34:21.517Z,18.05
2018-03-14T16:36:50.582Z,9.63
2018-03-14T16:39:21.849Z,9.88
2018-03-14T16:41:50.637Z,13.90
2018-03-14T16:44:19.536Z,6.95
2018-03-14T16:46:49.039Z,11.23
2018-03-14T16:49:17.584Z,13.20
2018-03-14T16:51:46.784Z,9.63
2018-03-14T16:54:16.032Z,10.85
2018-03-14T16:56:45.283Z,17.52
2018-03-14T16:59:14.109Z,10.10
2018-03-14T17:01:42.868Z,12.20
2018-03-14T17:04:11.413Z,9.73
2018-03-14T17:06:39.932Z,7.85
2018-03-14T17:09:08.516Z,11.25
2018-03-14T17:11:37.045Z,9.45
2018-03-14T17:14:05.662Z,10.80
2018-03-14T17:16:34.252Z,10.68
2018-03-14T17:19:02.876Z,9.73
2018-03-14T17:21:31.389Z,9.15
2018-03-14T17:23:59.893Z,8.63
2018-03-14T17:26:28.374Z,8.02
2018-03-14T17:28:56.884Z,8.07
2018-03-14T17:31:27.088Z,7.80
2018-03-14T17:33:55.918Z,13.30
2018-03-14T17:36:24.523Z,9.43
2018-03-14T17:38:54.807Z,5.80
2018-03-14T17:41:23.512Z,6.68
2018-03-14T17:43:52.237Z,8.38
2018-03-14T17:46:21.340Z,5.90
2018-03-14T17:48:50.222Z,7.75
2018-03-14T17:51:18.925Z,6.93
2018-03-14T17:53:48.459Z,4.93
2018-03-14T17:56:17.246Z,12.95
2018-03-14T17:58:46.087Z,7.50
2018-03-14T18:01:15.742Z,7.12
2018-03-14T18:03:44.714Z,7.30
2018-03-14T18:06:13.587Z,7.93
2018-03-14T18:08:42.820Z,11.55
2018-03-14T18:11:11.368Z,8.55
2018-03-14T18:13:41.218Z,9.00
2018-03-14T18:16:14.915Z,22.42
2018-03-14T18:18:43.565Z,11.23
2018-03-14T18:21:12.194Z,9.43
2018-03-14T18:23:40.885Z,9.00
2018-03-14T18:26:09.342Z,8.25
2018-03-14T18:28:37.901Z,9.18
2018-03-14T18:31:06.404Z,3.87
2018-03-14T18:33:34.959Z,5.43
2018-03-14T18:36:03.582Z,8.63
2018-03-14T18:38:32.845Z,4.47
2018-03-14T18:41:01.350Z,8.85
2018-03-14T18:43:30.012Z,6.37
2018-03-14T18:45:58.493Z,7.00
2018-03-14T18:48:26.971Z,5.18
2018-03-14T18:50:55.500Z,5.80
2018-03-14T18:53:24.595Z,3.53
2018-03-14T18:55:53.129Z,5.68
2018-03-14T18:58:21.713Z,4.82
2018-03-14T19:00:50.713Z,10.68
2018-03-14T19:03:19.396Z,7.90
2018-03-14T19:05:50.140Z,5.72
2018-03-14T19:08:18.923Z,8.40
2018-03-14T19:10:47.508Z,6.22
2018-03-14T19:13:16.436Z,5.97
2018-03-14T19:15:46.622Z,7.80
2018-03-14T19:18:15.197Z,12.65
2018-03-14T19:20:43.817Z,10.32
2018-03-14T19:23:13.196Z,12.68
2018-03-14T19:25:42.390Z,10.80
2018-03-14T19:28:11.072Z,9.40
2018-03-14T19:30:40.230Z,9.50
2018-03-14T19:33:08.710Z,12.68
2018-03-14T19:35:37.191Z,13.45
2018-03-14T19:38:05.846Z,13.35
2018-03-14T19:40:34.932Z,13.48
2018-03-14T19:43:03.452Z,12.85
2018-03-14T19:45:32.785Z,10.05
2018-03-14T19:48:01.235Z,16.58
2018-03-14T19:50:29.676Z,13.75
2018-03-14T19:52:58.500Z,15.07
2018-03-14T19:55:27.062Z,15.15
2018-03-14T19:57:55.649Z,15.80
2018-03-14T20:00:24.185Z,12.15
2018-03-14T20:02:52.768Z,14.73
2018-03-14T20:05:21.418Z,15.95
2018-03-14T20:07:50.809Z,18.12
2018-03-14T20:10:19.407Z,14.43
2018-03-14T20:12:48.093Z,14.50
2018-03-14T20:15:17.162Z,15.98
2018-03-14T20:17:46.571Z,15.75
2018-03-14T20:20:15.789Z,17.60
2018-03-14T20:22:44.646Z,14.23
2018-03-14T20:25:14.415Z,16.83
2018-03-14T20:27:43.083Z,14.98
2018-03-14T20:30:12.984Z,14.38
2018-03-14T20:32:42.942Z,18.70
2018-03-14T20:35:11.673Z,15.90
2018-03-14T20:37:40.378Z,22.27
2018-03-14T20:40:09.744Z,21.30
2018-03-14T20:42:46.631Z,20.15
2018-03-14T20:45:18.100Z,17.65
2018-03-14T20:47:49.834Z,20.15
2018-03-14T20:50:19.987Z,17.95
2018-03-14T20:52:48.618Z,15.77
2018-03-14T20:55:18.112Z,18.10
2018-03-14T20:57:46.593Z,16.73
2018-03-14T21:00:15.386Z,16.70
2018-03-14T21:02:44.835Z,16.02
2018-03-14T21:05:13.549Z,18.58
2018-03-14T21:07:42.469Z,17.62
2018-03-14T21:10:11.070Z,19.77
2018-03-14T21:12:39.726Z,18.40
2018-03-14T21:15:08.423Z,17.75
2018-03-14T21:17:37.340Z,15.27
2018-03-14T21:20:05.846Z,15.75
2018-03-14T21:22:34.364Z,18.02
2018-03-14T21:25:02.988Z,16.60
2018-03-14T21:27:31.461Z,18.27
2018-03-14T21:30:00.237Z,17.83
2018-03-14T21:32:28.752Z,20.17
2018-03-14T21:34:57.264Z,15.98
2018-03-14T21:37:25.980Z,15.45
2018-03-14T21:39:54.970Z,18.05
2018-03-14T21:42:23.525Z,17.77
2018-03-14T21:44:52.068Z,19.20
2018-03-14T21:47:21.132Z,17.35
2018-03-14T21:49:49.922Z,18.95
2018-03-14T21:52:18.744Z,16.37
2018-03-14T21:54:48.008Z,15.80
2018-03-14T21:57:19.392Z,17.05
2018-03-14T21:59:47.976Z,16.90
2018-03-14T22:02:16.554Z,14.23
2018-03-14T22:04:45.116Z,15.10
2018-03-14T22:07:13.790Z,15.52
2018-03-14T22:09:43.516Z,17.02
2018-03-14T22:12:12.218Z,15.90
2018-03-14T22:14:40.871Z,17.62
2018-03-14T22:17:09.802Z,27.45
2018-03-14T22:19:38.254Z,17.60
2018-03-14T22:22:06.782Z,18.25
2018-03-14T22:24:35.858Z,17.77
2018-03-14T22:27:04.412Z,18.70
2018-03-14T22:29:32.882Z,19.67
2018-03-14T22:32:01.490Z,20.70
2018-03-14T22:34:29.979Z,21.00
2018-03-14T22:36:59.350Z,21.08
2018-03-14T22:39:28.357Z,20.62
2018-03-14T22:41:56.832Z,24.35
2018-03-14T22:44:25.414Z,27.17
2018-03-14T22:46:55.375Z,18.62
2018-03-14T22:49:23.913Z,28.58
2018-03-14T22:51:52.422Z,19.17
2018-03-14T22:54:21.518Z,28.02
2018-03-14T22:56:50.168Z,23.92
2018-03-14T22:59:18.681Z,22.05
2018-03-14T23:01:47.489Z,19.67
2018-03-14T23:04:16.896Z,27.55
2018-03-14T23:06:45.674Z,19.77
2018-03-14T23:09:14.532Z,23.35
2018-03-14T23:11:43.102Z,26.23
2018-03-14T23:14:11.563Z,27.75
2018-03-14T23:16:40.066Z,29.17
2018-03-14T23:19:08.522Z,29.73
2018-03-14T23:21:37.751Z,26.70
2018-03-14T23:24:06.847Z,29.52
2018-03-14T23:26:35.319Z,27.58
2018-03-14T23:29:03.793Z,24.48
2018-03-14T23:31:32.488Z,23.02
2018-03-14T23:34:01.039Z,24.45
2018-03-14T23:36:29.552Z,26.98
2018-03-14T23:39:00.620Z,25.42
2018-03-14T23:41:29.995Z,28.80
2018-03-14T23:43:58.505Z,24.58
2018-03-14T23:46:27.880Z,21.90
2018-03-14T23:48:56.359Z,26.23
2018-03-14T23:51:24.875Z,26.75
2018-03-14T23:53:53.837Z,24.23
2018-03-14T23:56:22.318Z,27.40
2018-03-14T23:58:50.797Z,37.97
